Time;durP1;ratioP1;P1;durP2;ratioP2;P2;SDS_P1;SDS_P2;PMS_P1;PMS_P2;Temp;Humidity;BMP_temperature;BMP_pressure;BME280_temperature;BME280_humidity;BME280_pressure;Samples;Min_cycle;Max_cycle;Signal;HPM_P1;HPM_P2
2022/01/01 00:02:24;;;;;;;11.85;6.43;;;0.60;99.90;;;;;;5037958;28;20032;-80
2022/01/01 00:04:50;;;;;;;8.85;5.82;;;0.60;99.90;;;;;;5036737;28;20029;-79
2022/01/01 00:07:17;;;;;;;12.23;7.28;;;0.60;99.90;;;;;;5037719;28;20113;-80
2022/01/01 00:09:43;;;;;;;12.15;7.40;;;0.60;99.90;;;;;;5035039;28;20052;-80
2022/01/01 00:12:10;;;;;;;13.20;7.68;;;0.60;99.90;;;;;;5033521;28;20025;-80
2022/01/01 00:14:37;;;;;;;11.68;7.05;;;0.60;99.90;;;;;;5036617;28;20104;-80
2022/01/01 00:17:04;;;;;;;11.63;6.43;;;0.60;99.90;;;;;;5036562;28;20026;-80
2022/01/01 00:19:31;;;;;;;15.63;8.75;;;0.50;99.90;;;;;;5036357;28;20047;-80
2022/01/01 00:22:00;;;;;;;14.48;8.90;;;0.50;99.90;;;;;;5035172;28;20029;-80
2022/01/01 00:24:26;;;;;;;12.50;7.90;;;0.50;99.90;;;;;;5051969;28;20029;-80
2022/01/01 00:26:52;;;;;;;19.17;10.02;;;0.50;99.90;;;;;;5033275;28;20045;-80
2022/01/01 00:29:18;;;;;;;19.15;9.60;;;0.50;99.90;;;;;;5036196;28;20018;-80
2022/01/01 00:31:44;;;;;;;16.65;9.88;;;0.40;99.90;;;;;;5036299;28;20478;-80
2022/01/01 00:34:11;;;;;;;22.05;11.98;;;0.40;99.90;;;;;;5035797;28;20029;-80
2022/01/01 00:36:39;;;;;;;19.17;10.82;;;0.50;99.90;;;;;;5036516;28;20021;-80
2022/01/01 00:39:05;;;;;;;23.10;12.88;;;0.50;99.90;;;;;;5041792;28;20025;-80
2022/01/01 00:41:31;;;;;;;28.27;14.45;;;0.40;99.90;;;;;;5042097;28;20034;-80
2022/01/01 00:43:57;;;;;;;48.35;23.33;;;0.40;99.90;;;;;;5038763;28;20040;-80
2022/01/01 00:46:23;;;;;;;46.15;23.98;;;0.50;99.90;;;;;;5042421;28;20030;-80
2022/01/01 00:48:53;;;;;;;53.78;29.42;;;0.50;99.90;;;;;;5040642;28;20030;-79
2022/01/01 00:51:22;;;;;;;49.00;26.30;;;0.50;99.90;;;;;;5040513;28;20121;-80
2022/01/01 00:53:48;;;;;;;50.05;26.90;;;0.50;99.90;;;;;;5039948;28;20025;-79
2022/01/01 00:56:14;;;;;;;47.13;24.27;;;0.50;99.90;;;;;;5040866;28;20121;-79
2022/01/01 00:58:40;;;;;;;44.97;24.25;;;0.50;99.90;;;;;;5040626;28;20091;-79
2022/01/01 01:01:05;;;;;;;78.25;30.20;;;0.50;99.90;;;;;;5039961;28;20037;-79
2022/01/01 01:03:31;;;;;;;51.97;25.08;;;0.50;99.90;;;;;;5041473;28;20028;-79
2022/01/01 01:05:59;;;;;;;45.20;22.48;;;0.50;99.90;;;;;;5041040;28;20045;-79
2022/01/01 01:08:26;;;;;;;36.13;19.27;;;0.60;99.90;;;;;;5040452;28;20022;-80
2022/01/01 01:10:52;;;;;;;35.65;18.60;;;0.60;99.90;;;;;;5041000;28;20482;-79
2022/01/01 01:13:20;;;;;;;28.05;15.35;;;0.60;99.90;;;;;;5040879;28;20025;-79
2022/01/01 01:15:46;;;;;;;33.35;18.20;;;0.60;99.90;;;;;;5042162;28;20037;-80
2022/01/01 01:18:12;;;;;;;31.52;16.15;;;0.50;99.90;;;;;;5059608;28;20032;-80
2022/01/01 01:20:38;;;;;;;26.55;15.63;;;0.50;99.90;;;;;;5045077;28;20017;-79
2022/01/01 01:23:04;;;;;;;30.95;14.98;;;0.50;99.90;;;;;;5044330;28;20029;-80
2022/01/01 01:25:37;;;;;;;33.28;16.60;;;0.50;99.90;;;;;;5043807;28;20037;-79
2022/01/01 01:28:07;;;;;;;25.85;14.25;;;0.50;99.90;;;;;;5045456;28;20428;-79
2022/01/01 01:30:33;;;;;;;30.83;15.40;;;0.40;99.90;;;;;;5044167;28;20045;-80
2022/01/01 01:32:59;;;;;;;34.15;18.23;;;0.40;99.90;;;;;;5043696;28;20556;-80
2022/01/01 01:35:25;;;;;;;25.83;14.10;;;0.50;99.90;;;;;;5060743;28;20033;-80
2022/01/01 01:37:50;;;;;;;25.10;15.05;;;0.50;99.90;;;;;;5044887;28;20033;-79
2022/01/01 01:40:16;;;;;;;31.23;17.65;;;0.40;99.90;;;;;;5044890;28;20104;-79
2022/01/01 01:42:44;;;;;;;28.48;15.38;;;0.40;99.90;;;;;;5060621;28;20025;-79
2022/01/01 01:45:15;;;;;;;25.50;15.48;;;0.40;99.90;;;;;;5044206;28;20436;-80
2022/01/01 01:47:42;;;;;;;40.55;20.92;;;0.40;99.90;;;;;;5045377;28;20055;-80
2022/01/01 01:50:10;;;;;;;59.15;27.75;;;0.40;99.90;;;;;;5043304;28;20045;-79
2022/01/01 01:52:37;;;;;;;139.88;35.20;;;0.40;99.90;;;;;;5044629;28;20024;-79
2022/01/01 01:55:08;;;;;;;78.50;34.97;;;0.40;99.90;;;;;;5043518;28;20049;-79
2022/01/01 01:57:41;;;;;;;;;;;0.30;99.90;;;;;;5044083;28;20041;-80
2022/01/01 02:00:22;;;;;;;48.88;25.15;;;0.30;99.90;;;;;;5045179;28;19906;-80
2022/01/01 02:02:48;;;;;;;40.13;22.23;;;0.30;99.90;;;;;;5044091;28;20053;-80
2022/01/01 02:05:14;;;;;;;41.80;22.60;;;0.30;99.90;;;;;;5044624;28;20021;-80
2022/01/01 02:07:41;;;;;;;41.25;22.88;;;0.30;99.90;;;;;;5026479;28;20164;-80
2022/01/01 02:10:08;;;;;;;39.28;20.88;;;0.30;99.90;;;;;;5024654;28;20144;-80
2022/01/01 02:12:34;;;;;;;37.63;20.77;;;0.30;99.90;;;;;;5023973;28;20022;-80
2022/01/01 02:17:28;;;;;;;30.83;17.40;;;0.40;99.90;;;;;;5025430;28;20030;-80
2022/01/01 02:20:01;;;;;;;43.42;22.27;;;0.30;99.90;;;;;;5023816;28;20026;-80
2022/01/01 02:22:47;;;;;;;36.78;22.35;;;0.30;99.90;;;;;;5026421;28;20061;-80
2022/01/01 02:25:15;;;;;;;35.80;20.63;;;0.30;99.90;;;;;;5024782;28;20033;-80
2022/01/01 02:27:41;;;;;;;50.22;25.95;;;0.30;99.90;;;;;;5036861;28;20089;-80
2022/01/01 02:30:10;;;;;;;41.30;22.10;;;0.30;99.90;;;;;;5043548;28;20429;-80
2022/01/01 02:32:36;;;;;;;40.03;22.00;;;0.30;99.90;;;;;;5043538;28;20424;-80
2022/01/01 02:35:05;;;;;;;73.68;35.70;;;0.30;99.90;;;;;;5037462;28;20034;-80
2022/01/01 02:37:31;;;;;;;56.97;29.00;;;0.30;99.90;;;;;;5024515;28;20447;-80
2022/01/01 02:39:57;;;;;;;54.30;30.23;;;0.30;99.90;;;;;;5024605;28;20051;-80
2022/01/01 02:42:24;;;;;;;55.17;30.10;;;0.30;99.90;;;;;;5022421;28;20026;-80
2022/01/01 02:44:51;;;;;;;57.03;30.30;;;0.30;99.90;;;;;;5022767;28;20030;-80
2022/01/01 02:47:16;;;;;;;76.18;38.72;;;0.30;99.90;;;;;;5024188;28;20072;-80
2022/01/01 02:49:42;;;;;;;59.95;31.80;;;0.40;99.90;;;;;;5022393;28;20117;-80
2022/01/01 02:52:09;;;;;;;64.07;32.13;;;0.40;99.90;;;;;;5034048;28;20029;-80
2022/01/01 02:54:34;;;;;;;60.08;31.05;;;0.40;99.90;;;;;;5042423;28;20025;-80
2022/01/01 02:57:00;;;;;;;59.45;29.42;;;0.40;99.90;;;;;;5042246;28;20079;-80
2022/01/01 02:59:26;;;;;;;58.38;28.73;;;0.40;99.90;;;;;;5041801;28;20032;-80
2022/01/01 03:01:52;;;;;;;56.90;28.88;;;0.30;99.90;;;;;;5042500;28;20041;-80
2022/01/01 03:04:18;;;;;;;47.55;27.67;;;0.30;99.90;;;;;;5041870;28;20037;-80
2022/01/01 03:06:52;;;;;;;52.83;29.13;;;0.30;99.90;;;;;;5042506;28;20029;-80
2022/01/01 03:09:17;;;;;;;59.70;32.55;;;0.30;99.90;;;;;;5042454;28;20519;-80
2022/01/01 03:11:43;;;;;;;56.88;28.70;;;0.30;99.90;;;;;;5043204;28;20025;-80
2022/01/01 03:14:10;;;;;;;49.95;26.67;;;0.40;99.90;;;;;;5042094;28;20477;-80
2022/01/01 03:16:36;;;;;;;57.88;28.40;;;0.40;99.90;;;;;;5042237;28;20021;-80
2022/01/01 03:19:02;;;;;;;50.42;27.33;;;0.30;99.90;;;;;;5043243;28;20064;-80
2022/01/01 03:21:28;;;;;;;56.72;29.05;;;0.40;99.90;;;;;;5042544;28;20033;-80
2022/01/01 03:23:54;;;;;;;59.33;29.23;;;0.30;99.90;;;;;;5056530;28;20021;-80
2022/01/01 03:26:20;;;;;;;53.80;29.63;;;0.40;99.90;;;;;;5043029;28;20040;-80
2022/01/01 03:28:45;;;;;;;57.40;30.20;;;0.40;99.90;;;;;;5042615;28;20018;-80
2022/01/01 03:31:11;;;;;;;60.22;31.20;;;0.40;99.90;;;;;;5042394;28;20030;-80
2022/01/01 03:33:37;;;;;;;92.97;43.70;;;0.40;99.90;;;;;;5042348;28;20025;-80
2022/01/01 03:36:03;;;;;;;79.05;39.75;;;0.40;99.90;;;;;;5040566;28;20029;-80
2022/01/01 03:38:29;;;;;;;70.65;35.83;;;0.40;99.90;;;;;;5042217;28;20036;-80
2022/01/01 03:40:55;;;;;;;66.22;33.42;;;0.40;99.90;;;;;;5028389;28;20033;-80
2022/01/01 03:43:21;;;;;;;54.05;29.92;;;0.40;99.90;;;;;;5038294;28;20536;-80
2022/01/01 03:45:47;;;;;;;54.97;30.05;;;0.30;99.90;;;;;;5022943;28;20018;-80
2022/01/01 03:48:13;;;;;;;52.17;26.98;;;0.30;99.90;;;;;;5021868;28;20113;-80
2022/01/01 03:50:38;;;;;;;52.10;27.30;;;0.30;99.90;;;;;;5037676;28;20049;-80
2022/01/01 03:53:04;;;;;;;47.78;26.50;;;0.30;99.90;;;;;;5021172;28;20022;-79
2022/01/01 03:55:30;;;;;;;48.58;24.45;;;0.30;99.90;;;;;;5021888;28;20041;-80
2022/01/01 03:57:56;;;;;;;43.72;22.23;;;0.30;99.90;;;;;;5037141;28;20029;-80
2022/01/01 04:00:22;;;;;;;43.00;24.20;;;0.30;99.90;;;;;;5039842;28;20025;-80
2022/01/01 04:02:48;;;;;;;43.15;21.42;;;0.30;99.90;;;;;;5038713;28;20022;-80
2022/01/01 04:05:13;;;;;;;36.28;20.95;;;0.40;99.90;;;;;;5039280;28;20098;-80
2022/01/01 04:07:39;;;;;;;34.17;19.55;;;0.40;99.90;;;;;;5039326;28;20527;-80
2022/01/01 04:10:05;;;;;;;36.25;20.27;;;0.40;99.90;;;;;;5038192;28;20025;-80
2022/01/01 04:12:31;;;;;;;37.70;20.75;;;0.30;99.90;;;;;;5031686;28;20032;-80
2022/01/01 04:14:59;;;;;;;37.83;20.15;;;0.40;99.90;;;;;;5018456;28;20022;-80
2022/01/01 04:17:27;;;;;;;37.85;21.63;;;0.40;99.90;;;;;;5018899;28;20018;-80
2022/01/01 04:19:52;;;;;;;40.78;23.40;;;0.40;99.90;;;;;;5034440;28;20029;-80
2022/01/01 04:22:18;;;;;;;40.50;22.60;;;0.40;99.90;;;;;;5018321;28;20053;-79
2022/01/01 04:24:44;;;;;;;37.63;20.80;;;0.40;99.90;;;;;;5039102;28;20052;-80
2022/01/01 04:27:09;;;;;;;53.20;28.52;;;0.40;99.90;;;;;;5038037;28;20025;-80
2022/01/01 04:29:35;;;;;;;43.38;24.45;;;0.40;99.90;;;;;;5039531;28;20072;-80
2022/01/01 04:32:02;;;;;;;44.03;24.75;;;0.30;99.90;;;;;;5037411;28;20083;-80
2022/01/01 04:34:28;;;;;;;47.67;27.10;;;0.30;99.90;;;;;;5039021;28;20121;-80
2022/01/01 04:37:15;;;;;;;46.58;26.00;;;0.30;99.90;;;;;;5033063;28;20061;-80
2022/01/01 04:39:41;;;;;;;59.55;31.60;;;0.30;99.90;;;;;;5035177;28;20087;-80
2022/01/01 04:42:07;;;;;;;48.83;27.60;;;0.20;99.90;;;;;;5034740;28;20033;-79
2022/01/01 04:44:33;;;;;;;51.30;27.55;;;0.20;99.90;;;;;;5019370;28;20030;-80
2022/01/01 04:46:59;;;;;;;48.90;26.35;;;0.30;99.90;;;;;;5017754;28;20053;-80
2022/01/01 04:49:24;;;;;;;43.03;24.95;;;0.30;99.90;;;;;;5019168;28;20057;-80
2022/01/01 04:51:50;;;;;;;43.33;23.92;;;0.30;99.90;;;;;;5021325;28;20026;-80
2022/01/01 04:54:17;;;;;;;48.38;26.77;;;0.30;99.90;;;;;;5039701;28;20029;-80
2022/01/01 04:56:44;;;;;;;50.05;26.35;;;0.30;99.90;;;;;;5026189;28;20072;-80
2022/01/01 04:59:11;;;;;;;39.42;23.77;;;0.30;99.90;;;;;;5041480;28;20030;-80
2022/01/01 05:01:39;;;;;;;42.53;24.05;;;0.30;99.90;;;;;;5041386;28;20025;-80
2022/01/01 05:04:05;;;;;;;38.70;21.92;;;0.20;99.90;;;;;;5042780;28;20029;-80
2022/01/01 05:06:31;;;;;;;40.58;22.85;;;0.20;99.90;;;;;;5041615;28;20060;-80
2022/01/01 05:08:57;;;;;;;41.35;23.65;;;0.20;99.90;;;;;;5041488;28;20028;-80
2022/01/01 05:11:23;;;;;;;59.53;33.17;;;0.30;99.90;;;;;;5023332;28;20026;-80
2022/01/01 05:13:48;;;;;;;48.15;28.05;;;0.20;99.90;;;;;;5023337;28;20034;-79
2022/01/01 05:16:18;;;;;;;50.90;27.58;;;0.20;99.90;;;;;;5022902;28;20037;-80
2022/01/01 05:18:45;;;;;;;44.65;25.40;;;0.20;99.90;;;;;;5023549;28;20084;-80
2022/01/01 05:21:10;;;;;;;46.85;27.05;;;0.20;99.90;;;;;;5022086;28;20033;-80
2022/01/01 05:23:36;;;;;;;48.28;26.55;;;0.20;99.90;;;;;;5022652;28;20080;-80
2022/01/01 05:26:02;;;;;;;50.00;29.27;;;0.20;99.90;;;;;;5027717;28;20022;-80
2022/01/01 05:28:28;;;;;;;52.35;29.42;;;0.20;99.90;;;;;;5042417;28;20088;-80
2022/01/01 05:30:54;;;;;;;47.28;25.88;;;0.20;99.90;;;;;;5041543;28;20021;-80
2022/01/01 05:33:20;;;;;;;41.30;24.00;;;0.20;99.90;;;;;;5041831;28;20033;-80
2022/01/01 05:35:45;;;;;;;43.83;25.60;;;0.10;99.90;;;;;;5042712;28;20026;-79
2022/01/01 05:38:11;;;;;;;47.53;25.98;;;0.10;99.90;;;;;;5040701;28;20025;-80
2022/01/01 05:40:37;;;;;;;49.90;28.88;;;0.10;99.90;;;;;;5042317;28;20123;-80
2022/01/01 05:43:02;;;;;;;65.35;32.97;;;0.10;99.90;;;;;;5031476;28;20040;-80
2022/01/01 05:45:28;;;;;;;50.28;27.55;;;0.20;99.90;;;;;;5021856;28;20076;-80
2022/01/01 05:47:54;;;;;;;49.85;29.48;;;0.10;99.90;;;;;;5022082;28;20026;-80
2022/01/01 05:50:23;;;;;;;47.60;27.35;;;0.10;99.90;;;;;;5022242;28;20069;-80
2022/01/01 05:52:49;;;;;;;48.40;28.10;;;0.20;99.90;;;;;;5020627;28;20018;-80
2022/01/01 05:55:14;;;;;;;53.63;29.50;;;0.20;99.90;;;;;;5020449;28;20137;-80
2022/01/01 05:57:40;;;;;;;53.63;29.40;;;0.20;99.90;;;;;;5033025;28;20029;-80
2022/01/01 06:00:07;;;;;;;54.63;29.92;;;0.20;99.90;;;;;;5038040;28;20075;-80
2022/01/01 06:02:42;;;;;;;50.10;28.17;;;0.20;99.90;;;;;;5039582;28;20018;-79
2022/01/01 06:05:09;;;;;;;55.08;29.52;;;0.20;99.90;;;;;;5041637;28;20074;-80
2022/01/01 06:07:35;;;;;;;62.63;32.30;;;0.20;99.90;;;;;;5041660;28;20026;-80
2022/01/01 06:10:02;;;;;;;48.08;26.42;;;0.20;99.90;;;;;;5041472;28;20021;-80
2022/01/01 06:12:27;;;;;;;55.05;28.55;;;0.20;99.90;;;;;;5042030;28;20124;-80
2022/01/01 06:14:53;;;;;;;73.72;35.60;;;0.10;99.90;;;;;;5042349;28;20572;-80
2022/01/01 06:17:19;;;;;;;47.13;26.15;;;0.10;99.90;;;;;;5039596;28;20021;-80
2022/01/01 06:19:45;;;;;;;52.33;25.85;;;0.10;99.90;;;;;;5039473;28;20021;-80
2022/01/01 06:22:11;;;;;;;52.20;27.40;;;0.10;99.90;;;;;;5039065;28;20033;-80
2022/01/01 06:24:37;;;;;;;47.67;26.77;;;0.10;99.90;;;;;;5039798;28;20512;-80
2022/01/01 06:27:03;;;;;;;52.40;29.65;;;0.10;99.90;;;;;;5039684;28;20029;-80
2022/01/01 06:29:28;;;;;;;61.42;33.22;;;0.10;99.90;;;;;;5040145;28;20470;-81
2022/01/01 06:31:54;;;;;;;59.15;30.23;;;0.10;99.90;;;;;;5037855;28;20033;-80
2022/01/01 06:34:20;;;;;;;50.70;28.10;;;0.10;99.90;;;;;;5039958;28;20033;-81
2022/01/01 06:36:45;;;;;;;50.72;27.83;;;0.10;99.90;;;;;;5047130;23;20026;-74
2022/01/01 06:39:11;;;;;;;44.75;26.13;;;0.10;99.90;;;;;;5074080;28;20029;-73
2022/01/01 06:41:37;;;;;;;53.75;29.30;;;0.10;99.90;;;;;;5074977;28;20469;-73
2022/01/01 06:44:03;;;;;;;52.08;28.27;;;0.10;99.90;;;;;;5073561;28;20111;-73
2022/01/01 06:46:29;;;;;;;47.95;26.80;;;0.00;99.90;;;;;;5075204;28;20452;-73
2022/01/01 06:48:54;;;;;;;45.65;25.65;;;0.00;99.90;;;;;;5074741;28;20060;-73
2022/01/01 06:51:20;;;;;;;42.97;24.25;;;0.00;99.90;;;;;;5074635;28;20025;-73
2022/01/01 06:53:46;;;;;;;49.10;28.08;;;0.00;99.90;;;;;;5074790;28;20067;-73
2022/01/01 06:56:11;;;;;;;47.95;26.55;;;0.00;99.90;;;;;;5073945;28;20020;-72
2022/01/01 06:58:39;;;;;;;48.40;26.33;;;0.00;99.90;;;;;;5054682;28;20025;-73
2022/01/01 07:01:05;;;;;;;48.95;25.23;;;0.00;99.90;;;;;;5054655;28;20154;-73
2022/01/01 07:03:31;;;;;;;44.22;24.13;;;0.10;99.90;;;;;;5054503;28;20040;-73
2022/01/01 07:05:56;;;;;;;41.17;22.33;;;0.10;99.90;;;;;;5054337;28;20025;-73
2022/01/01 07:08:22;;;;;;;55.72;30.48;;;0.10;99.90;;;;;;5054403;28;20025;-72
2022/01/01 07:10:48;;;;;;;47.15;25.85;;;0.10;99.90;;;;;;5054467;28;20070;-73
2022/01/01 07:13:15;;;;;;;40.28;23.25;;;0.10;99.90;;;;;;5053763;28;20021;-73
2022/01/01 07:15:41;;;;;;;61.95;34.13;;;0.10;99.90;;;;;;5054121;28;20021;-73
2022/01/01 07:18:07;;;;;;;59.13;32.58;;;0.10;99.90;;;;;;5052974;28;20082;-73
2022/01/01 07:20:33;;;;;;;47.45;26.60;;;0.00;99.90;;;;;;5054019;28;20025;-72
2022/01/01 07:22:58;;;;;;;45.70;25.42;;;0.00;99.90;;;;;;5054222;28;20083;-73
2022/01/01 07:25:24;;;;;;;41.42;23.73;;;0.00;99.90;;;;;;5054404;28;20029;-72
2022/01/01 07:27:50;;;;;;;44.70;25.52;;;0.00;99.90;;;;;;5068205;28;20434;-72
2022/01/01 07:30:16;;;;;;;43.78;24.67;;;0.00;99.90;;;;;;5074364;28;20020;-73
2022/01/01 07:32:43;;;;;;;47.95;26.17;;;0.00;99.90;;;;;;5073960;28;20052;-73
2022/01/01 07:35:11;;;;;;;58.35;31.27;;;0.00;99.90;;;;;;5073697;28;20027;-72
2022/01/01 07:37:37;;;;;;;62.35;33.58;;;0.00;99.90;;;;;;5073702;28;20028;-73
2022/01/01 07:40:05;;;;;;;58.35;30.55;;;0.00;99.90;;;;;;5073867;28;20498;-73
2022/01/01 07:42:31;;;;;;;50.47;29.08;;;0.00;99.90;;;;;;5072732;28;20111;-73
2022/01/01 07:44:57;;;;;;;46.50;24.98;;;0.00;99.90;;;;;;5073773;28;20456;-72
2022/01/01 07:47:23;;;;;;;46.83;26.00;;;0.00;99.90;;;;;;5073703;28;20409;-72
2022/01/01 07:49:48;;;;;;;46.08;26.42;;;0.00;99.90;;;;;;5073781;28;20035;-72
2022/01/01 07:52:14;;;;;;;46.75;25.63;;;0.10;99.90;;;;;;5073486;28;20028;-73
2022/01/01 07:54:40;;;;;;;45.15;24.23;;;0.10;99.90;;;;;;5074129;28;20036;-72
2022/01/01 07:57:05;;;;;;;48.38;28.33;;;0.10;99.90;;;;;;5065582;28;20025;-72
2022/01/01 07:59:31;;;;;;;42.13;24.35;;;0.10;99.90;;;;;;5053807;28;20025;-72
2022/01/01 08:01:57;;;;;;;55.22;30.25;;;0.10;99.90;;;;;;5053815;28;20036;-73
2022/01/01 08:04:23;;;;;;;53.30;29.58;;;0.10;99.90;;;;;;5053390;28;20107;-73
2022/01/01 08:06:48;;;;;;;39.25;22.75;;;0.20;99.90;;;;;;5053298;28;20021;-73
2022/01/01 08:09:16;;;;;;;43.40;24.25;;;0.10;99.90;;;;;;5053374;28;20385;-72
2022/01/01 08:11:41;;;;;;;43.88;24.85;;;0.10;99.90;;;;;;5052156;28;20025;-73
2022/01/01 08:14:07;;;;;;;46.45;25.83;;;0.20;99.90;;;;;;5053506;28;20036;-72
2022/01/01 08:16:33;;;;;;;41.17;23.55;;;0.20;99.90;;;;;;5053777;28;20036;-72
2022/01/01 08:18:59;;;;;;;49.63;27.85;;;0.30;99.90;;;;;;5053308;28;20025;-72
2022/01/01 08:21:24;;;;;;;61.05;33.33;;;0.30;99.90;;;;;;5052945;28;20024;-72
2022/01/01 08:23:50;;;;;;;77.65;39.80;;;0.20;99.90;;;;;;5053397;28;20041;-72
2022/01/01 08:26:16;;;;;;;93.28;47.63;;;0.30;99.90;;;;;;5052976;28;20013;-72
2022/01/01 08:28:41;;;;;;;64.38;35.83;;;0.30;99.90;;;;;;5053271;28;20059;-72
2022/01/01 08:31:08;;;;;;;75.70;39.92;;;0.20;99.90;;;;;;5053235;28;20477;-72
2022/01/01 08:33:34;;;;;;;78.57;40.88;;;0.20;99.90;;;;;;5053489;28;20025;-72
2022/01/01 08:36:03;;;;;;;68.50;36.75;;;0.20;99.90;;;;;;5053164;28;20021;-72
2022/01/01 08:38:29;;;;;;;68.30;36.45;;;0.20;99.90;;;;;;5053030;28;20396;-72
2022/01/01 08:40:55;;;;;;;77.63;39.47;;;0.30;99.90;;;;;;5053105;28;20424;-72
2022/01/01 08:43:23;;;;;;;78.03;40.63;;;0.30;99.90;;;;;;5053118;28;20078;-72
2022/01/01 08:45:48;;;;;;;63.42;32.10;;;0.30;99.90;;;;;;5053280;28;20480;-72
2022/01/01 08:48:14;;;;;;;65.20;35.35;;;0.30;99.90;;;;;;5053128;28;20025;-73
2022/01/01 08:50:40;;;;;;;52.08;31.63;;;0.40;99.90;;;;;;5053011;28;20072;-72
2022/01/01 08:53:06;;;;;;;55.33;29.75;;;0.40;99.90;;;;;;5053002;28;20023;-73
2022/01/01 08:55:31;;;;;;;64.28;31.85;;;0.30;99.90;;;;;;5053265;28;20104;-73
2022/01/01 08:57:57;;;;;;;53.78;30.63;;;0.40;99.90;;;;;;5052830;28;20028;-73
2022/01/01 09:00:23;;;;;;;61.28;32.28;;;0.30;99.90;;;;;;5051656;28;20399;-73
2022/01/01 09:02:48;;;;;;;53.00;27.75;;;0.30;99.90;;;;;;5052198;28;20366;-73
2022/01/01 09:05:14;;;;;;;53.05;28.48;;;0.30;99.90;;;;;;5052804;28;20496;-72
2022/01/01 09:07:40;;;;;;;48.95;26.70;;;0.40;99.90;;;;;;5052538;28;20079;-72
2022/01/01 09:10:06;;;;;;;57.50;30.45;;;0.40;99.90;;;;;;5051560;28;20071;-72
2022/01/01 09:12:32;;;;;;;47.83;25.98;;;0.50;99.90;;;;;;5052839;28;20100;-72
2022/01/01 09:14:58;;;;;;;54.80;28.90;;;0.50;99.90;;;;;;5053437;28;20061;-72
2022/01/01 09:17:24;;;;;;;67.78;35.33;;;0.50;99.90;;;;;;5052746;28;20025;-72
2022/01/01 09:19:50;;;;;;;66.38;34.50;;;0.50;99.90;;;;;;5053074;28;20033;-72
2022/01/01 09:22:19;;;;;;;60.35;33.15;;;0.50;99.90;;;;;;5052491;28;20527;-72
2022/01/01 09:24:45;;;;;;;67.05;34.80;;;0.50;99.90;;;;;;5052669;28;20492;-72
2022/01/01 09:27:11;;;;;;;63.92;34.45;;;0.50;99.90;;;;;;5052738;28;20021;-73
2022/01/01 09:29:36;;;;;;;58.03;30.20;;;0.60;99.90;;;;;;5052924;28;20166;-73
2022/01/01 09:32:03;;;;;;;66.00;33.53;;;0.60;99.90;;;;;;5052958;28;20044;-73
2022/01/01 09:34:30;;;;;;;60.50;32.08;;;0.60;99.90;;;;;;5052573;28;20060;-73
2022/01/01 09:36:57;;;;;;;69.50;34.55;;;0.70;99.90;;;;;;5053093;28;20041;-73
2022/01/01 09:39:24;;;;;;;53.05;28.77;;;0.70;99.90;;;;;;5056180;28;20037;-73
2022/01/01 09:41:50;;;;;;;56.15;31.58;;;0.70;99.90;;;;;;5056188;28;20028;-73
2022/01/01 09:44:18;;;;;;;57.45;32.53;;;0.80;99.90;;;;;;5056031;28;20037;-72
2022/01/01 09:46:46;;;;;;;46.50;27.02;;;0.90;99.90;;;;;;5056325;28;20439;-72
2022/01/01 09:49:16;;;;;;;55.35;31.05;;;0.80;99.90;;;;;;5055922;28;20517;-72
2022/01/01 09:51:42;;;;;;;61.85;32.60;;;0.90;99.90;;;;;;5055888;28;20374;-72
2022/01/01 09:54:08;;;;;;;67.72;33.83;;;0.90;99.90;;;;;;5056188;28;20021;-72
2022/01/01 09:56:35;;;;;;;60.40;32.13;;;0.90;99.90;;;;;;5059521;28;20036;-72
2022/01/01 09:59:00;;;;;;;57.85;29.63;;;0.90;99.90;;;;;;5086102;22;20033;-73
2022/01/01 10:01:26;;;;;;;50.63;29.35;;;0.90;99.90;;;;;;5035910;28;20032;-72
2022/01/01 10:03:52;;;;;;;49.20;27.42;;;0.90;99.90;;;;;;5035852;28;20028;-72
2022/01/01 10:06:20;;;;;;;57.05;29.88;;;0.90;99.90;;;;;;5035604;28;20028;-72
2022/01/01 10:08:58;;;;;;;67.72;33.33;;;1.00;99.90;;;;;;5035981;28;20022;-72
2022/01/01 10:11:25;;;;;;;55.42;27.15;;;1.00;99.90;;;;;;5036013;28;20034;-72
2022/01/01 10:13:51;;;;;;;46.95;25.13;;;1.10;99.90;;;;;;5035721;28;20389;-73
2022/01/01 10:16:18;;;;;;;46.78;25.70;;;1.10;99.90;;;;;;5035900;28;20021;-73
2022/01/01 10:18:50;;;;;;;55.03;27.27;;;1.20;99.90;;;;;;5035428;28;20036;-72
2022/01/01 10:21:20;;;;;;;47.13;25.23;;;1.30;99.90;;;;;;5035325;28;20100;-72
2022/01/01 10:23:49;;;;;;;54.10;29.27;;;1.30;99.90;;;;;;5035411;28;20100;-72
2022/01/01 10:29:15;;;;;;;48.72;26.45;;;1.40;99.90;;;;;;5035346;28;20033;-72
2022/01/01 10:31:56;;;;;;;47.92;26.80;;;1.40;99.90;;;;;;5034085;28;20044;-72
2022/01/01 10:34:24;;;;;;;43.67;24.58;;;1.30;99.90;;;;;;5035318;28;20025;-72
2022/01/01 10:36:52;;;;;;;42.75;23.75;;;1.40;99.90;;;;;;5035188;28;20388;-72
2022/01/01 10:39:19;;;;;;;55.22;30.02;;;1.40;99.90;;;;;;5035178;28;20032;-72
2022/01/01 10:41:46;;;;;;;46.60;25.95;;;1.50;99.90;;;;;;5035144;28;20091;-72
2022/01/01 10:44:13;;;;;;;57.33;30.65;;;1.50;99.90;;;;;;5035259;28;20072;-72
2022/01/01 10:46:40;;;;;;;53.35;28.80;;;1.50;99.90;;;;;;5035153;28;20021;-72
2022/01/01 10:52:13;;;;;;;57.20;29.30;;;1.50;99.90;;;;;;5034981;28;20018;-72
2022/01/01 10:54:49;;;;;;;48.08;27.50;;;1.60;99.90;;;;;;5034912;28;20109;-72
2022/01/01 10:57:28;;;;;;;57.10;29.88;;;1.60;99.90;;;;;;5034801;28;20029;-72
2022/01/01 11:00:17;;;;;;;69.68;36.38;;;1.60;99.90;;;;;;5034617;28;20496;-72
2022/01/01 11:02:54;;;;;;;56.05;29.85;;;1.60;99.90;;;;;;5034765;28;20083;-72
2022/01/01 11:05:27;;;;;;;54.28;30.13;;;1.70;99.90;;;;;;5034877;28;20075;-72
2022/01/01 11:07:53;;;;;;;61.08;31.65;;;1.70;99.90;;;;;;5034398;28;20032;-73
2022/01/01 11:10:20;;;;;;;43.88;26.92;;;1.70;99.90;;;;;;5033599;28;20029;-72
2022/01/01 11:12:48;;;;;;;47.97;27.42;;;1.80;99.90;;;;;;5033553;28;20017;-72
2022/01/01 11:15:14;;;;;;;44.35;26.38;;;1.70;99.90;;;;;;5033267;28;20496;-72
2022/01/01 11:17:41;;;;;;;52.97;30.42;;;1.60;99.90;;;;;;5033106;28;20527;-72
2022/01/01 11:20:07;;;;;;;62.05;32.50;;;1.50;99.90;;;;;;5033061;28;20026;-72
2022/01/01 11:22:34;;;;;;;64.40;33.53;;;1.50;99.90;;;;;;5032860;28;20393;-72
2022/01/01 11:25:00;;;;;;;64.38;31.58;;;1.40;99.90;;;;;;5032988;28;20473;-72
2022/01/01 11:27:27;;;;;;;67.65;34.63;;;1.50;99.90;;;;;;5033546;28;20037;-72
2022/01/01 11:29:55;;;;;;;67.88;33.13;;;1.50;99.90;;;;;;5034392;28;20029;-72
2022/01/01 11:32:23;;;;;;;69.97;35.30;;;1.60;99.90;;;;;;5034329;28;20378;-72
2022/01/01 11:34:52;;;;;;;86.40;43.25;;;1.70;99.90;;;;;;5032849;28;20101;-72
2022/01/01 11:37:22;;;;;;;97.07;45.90;;;1.70;99.90;;;;;;5034114;28;20381;-72
2022/01/01 11:39:53;;;;;;;81.15;39.72;;;1.70;99.90;;;;;;5034012;28;20021;-73
2022/01/01 11:42:19;;;;;;;70.70;36.65;;;1.70;99.90;;;;;;5034318;28;20033;-72
2022/01/01 11:44:53;;;;;;;67.50;36.55;;;1.80;99.90;;;;;;5034171;28;20039;-72
2022/01/01 11:47:23;;;;;;;57.38;29.25;;;1.80;99.90;;;;;;5034179;28;20539;-72
2022/01/01 11:49:52;;;;;;;53.90;29.60;;;1.80;99.90;;;;;;5034149;28;20465;-72
2022/01/01 11:52:36;;;;;;;47.35;27.00;;;1.80;99.90;;;;;;5033732;28;20476;-72
2022/01/01 11:55:08;;;;;;;49.95;26.65;;;1.80;99.90;;;;;;5034151;28;20041;-72
2022/01/01 11:57:34;;;;;;;55.05;31.08;;;1.80;99.90;;;;;;5033780;28;20055;-72
2022/01/01 12:00:10;;;;;;;54.47;29.85;;;1.80;99.90;;;;;;5033218;28;20033;-72
2022/01/01 12:02:38;;;;;;;57.40;30.65;;;1.80;99.90;;;;;;5033717;28;20021;-72
2022/01/01 12:05:22;;;;;;;57.00;29.02;;;1.80;99.90;;;;;;5033572;28;20030;-72
2022/01/01 12:07:52;;;;;;;54.38;29.95;;;1.80;99.90;;;;;;5033553;28;20037;-72
2022/01/01 12:10:24;;;;;;;53.70;30.43;;;1.90;99.90;;;;;;5033967;28;20049;-72
2022/01/01 12:12:59;;;;;;;54.95;29.45;;;1.90;99.90;;;;;;5033936;28;20021;-72
2022/01/01 12:15:25;;;;;;;57.85;30.23;;;2.00;99.90;;;;;;5033545;28;20527;-72
2022/01/01 12:17:53;;;;;;;52.75;27.63;;;2.00;99.90;;;;;;5033749;28;20029;-72
2022/01/01 12:20:23;;;;;;;52.05;29.02;;;2.00;99.90;;;;;;5032238;28;20481;-72
2022/01/01 12:22:50;;;;;;;53.85;29.55;;;2.10;99.90;;;;;;5033104;28;20076;-73
2022/01/01 12:25:18;;;;;;;54.05;31.20;;;2.10;99.90;;;;;;5033590;28;20044;-72
2022/01/01 12:27:47;;;;;;;58.80;32.35;;;2.10;99.90;;;;;;5033401;28;20477;-72
2022/01/01 12:30:15;;;;;;;62.05;33.53;;;2.20;99.90;;;;;;5033217;28;20030;-72
2022/01/01 12:32:44;;;;;;;61.53;34.38;;;2.30;99.90;;;;;;5033581;28;20096;-72
2022/01/01 12:35:16;;;;;;;60.33;34.08;;;2.30;99.90;;;;;;5033652;28;20064;-72
2022/01/01 12:37:42;;;;;;;65.90;35.80;;;2.40;99.90;;;;;;5033183;28;20481;-72
2022/01/01 12:40:10;;;;;;;65.47;35.63;;;2.50;99.90;;;;;;5033273;28;20049;-71
2022/01/01 12:42:37;;;;;;;63.80;34.53;;;2.50;99.90;;;;;;5033198;28;20080;-72
2022/01/01 12:45:08;;;;;;;67.63;36.53;;;2.60;99.90;;;;;;5033410;28;20022;-72
2022/01/01 12:47:34;;;;;;;67.80;35.45;;;2.70;99.90;;;;;;5031931;28;20030;-72